sensor_id;sensor_type;location;lat;lon;timestamp;P1;durP1;ratioP1;P2;durP2;ratioP2
4857;SDS011;58975;51.978;8.472;2024-01-07T00:01:51;23.27;;;12.77;;
4857;SDS011;58975;51.978;8.472;2024-01-07T00:06:47;23.08;;;12.02;;
4857;SDS011;58975;51.978;8.472;2024-01-07T00:11:44;27.35;;;13.02;;
4857;SDS011;58975;51.978;8.472;2024-01-07T00:16:40;24.63;;;12.80;;
4857;SDS011;58975;51.978;8.472;2024-01-07T00:21:36;22.73;;;12.27;;
4857;SDS011;58975;51.978;8.472;2024-01-07T00:26:33;25.35;;;11.77;;
4857;SDS011;58975;51.978;8.472;2024-01-07T00:31:29;21.60;;;11.65;;
4857;SDS011;58975;51.978;8.472;2024-01-07T00:36:26;23.23;;;12.00;;
4857;SDS011;58975;51.978;8.472;2024-01-07T00:41:22;22.92;;;11.93;;
4857;SDS011;58975;51.978;8.472;2024-01-07T00:46:20;21.50;;;12.50;;
4857;SDS011;58975;51.978;8.472;2024-01-07T00:51:17;22.45;;;12.15;;
4857;SDS011;58975;51.978;8.472;2024-01-07T00:56:13;21.80;;;11.45;;
4857;SDS011;58975;51.978;8.472;2024-01-07T01:01:09;23.25;;;11.73;;
4857;SDS011;58975;51.978;8.472;2024-01-07T01:06:06;22.38;;;11.75;;
4857;SDS011;58975;51.978;8.472;2024-01-07T01:11:02;24.33;;;11.40;;
4857;SDS011;58975;51.978;8.472;2024-01-07T01:15:59;21.98;;;12.35;;
4857;SDS011;58975;51.978;8.472;2024-01-07T01:20:55;22.45;;;11.85;;
4857;SDS011;58975;51.978;8.472;2024-01-07T01:25:52;22.50;;;12.05;;
4857;SDS011;58975;51.978;8.472;2024-01-07T01:30:48;20.73;;;10.63;;
4857;SDS011;58975;51.978;8.472;2024-01-07T01:35:45;20.80;;;12.02;;
4857;SDS011;58975;51.978;8.472;2024-01-07T01:40:41;20.00;;;10.90;;
4857;SDS011;58975;51.978;8.472;2024-01-07T01:45:38;16.23;;;9.07;;
4857;SDS011;58975;51.978;8.472;2024-01-07T01:50:34;17.60;;;9.40;;
4857;SDS011;58975;51.978;8.472;2024-01-07T01:55:31;17.55;;;9.57;;
4857;SDS011;58975;51.978;8.472;2024-01-07T02:00:28;17.05;;;9.13;;
4857;SDS011;58975;51.978;8.472;2024-01-07T02:05:24;17.08;;;8.43;;
4857;SDS011;58975;51.978;8.472;2024-01-07T02:10:21;15.07;;;8.40;;
4857;SDS011;58975;51.978;8.472;2024-01-07T02:15:17;15.98;;;7.88;;
4857;SDS011;58975;51.978;8.472;2024-01-07T02:20:14;14.07;;;8.45;;
4857;SDS011;58975;51.978;8.472;2024-01-07T02:25:10;15.63;;;8.95;;
4857;SDS011;58975;51.978;8.472;2024-01-07T02:30:07;17.42;;;9.27;;
4857;SDS011;58975;51.978;8.472;2024-01-07T02:35:04;13.95;;;8.13;;
4857;SDS011;58975;51.978;8.472;2024-01-07T02:40:01;14.43;;;8.43;;
4857;SDS011;58975;51.978;8.472;2024-01-07T02:44:57;16.65;;;7.85;;
4857;SDS011;58975;51.978;8.472;2024-01-07T02:49:54;13.88;;;7.82;;
4857;SDS011;58975;51.978;8.472;2024-01-07T02:54:50;13.40;;;8.38;;
4857;SDS011;58975;51.978;8.472;2024-01-07T02:59:47;19.55;;;7.97;;
4857;SDS011;58975;51.978;8.472;2024-01-07T03:04:44;16.67;;;8.98;;
4857;SDS011;58975;51.978;8.472;2024-01-07T03:09:40;14.63;;;8.38;;
4857;SDS011;58975;51.978;8.472;2024-01-07T03:14:37;17.02;;;9.05;;
4857;SDS011;58975;51.978;8.472;2024-01-07T03:19:33;14.88;;;8.32;;
4857;SDS011;58975;51.978;8.472;2024-01-07T03:24:30;15.43;;;8.93;;
4857;SDS011;58975;51.978;8.472;2024-01-07T03:29:26;19.33;;;9.20;;
4857;SDS011;58975;51.978;8.472;2024-01-07T03:34:23;18.40;;;9.40;;
4857;SDS011;58975;51.978;8.472;2024-01-07T03:39:19;16.15;;;8.73;;
4857;SDS011;58975;51.978;8.472;2024-01-07T03:44:16;16.20;;;8.43;;
4857;SDS011;58975;51.978;8.472;2024-01-07T03:49:12;17.58;;;9.35;;
4857;SDS011;58975;51.978;8.472;2024-01-07T03:54:09;15.35;;;8.15;;
4857;SDS011;58975;51.978;8.472;2024-01-07T03:59:05;19.33;;;8.93;;
4857;SDS011;58975;51.978;8.472;2024-01-07T04:04:02;16.92;;;8.32;;
4857;SDS011;58975;51.978;8.472;2024-01-07T04:08:58;13.40;;;7.72;;
4857;SDS011;58975;51.978;8.472;2024-01-07T04:13:55;13.95;;;6.70;;
4857;SDS011;58975;51.978;8.472;2024-01-07T04:18:51;11.48;;;7.10;;
4857;SDS011;58975;51.978;8.472;2024-01-07T04:23:49;10.75;;;6.78;;
4857;SDS011;58975;51.978;8.472;2024-01-07T04:28:46;9.27;;;5.57;;
4857;SDS011;58975;51.978;8.472;2024-01-07T04:33:42;14.88;;;7.82;;
4857;SDS011;58975;51.978;8.472;2024-01-07T04:38:39;12.32;;;6.70;;
4857;SDS011;58975;51.978;8.472;2024-01-07T04:43:35;9.73;;;6.05;;
4857;SDS011;58975;51.978;8.472;2024-01-07T04:48:33;10.48;;;6.35;;
4857;SDS011;58975;51.978;8.472;2024-01-07T04:53:29;10.65;;;6.35;;
4857;SDS011;58975;51.978;8.472;2024-01-07T04:58:26;10.88;;;5.93;;
4857;SDS011;58975;51.978;8.472;2024-01-07T05:03:22;12.73;;;6.18;;
4857;SDS011;58975;51.978;8.472;2024-01-07T05:08:18;9.32;;;5.90;;
4857;SDS011;58975;51.978;8.472;2024-01-07T05:13:18;10.70;;;6.00;;
4857;SDS011;58975;51.978;8.472;2024-01-07T05:18:14;10.60;;;6.50;;
4857;SDS011;58975;51.978;8.472;2024-01-07T05:23:14;14.73;;;7.40;;
4857;SDS011;58975;51.978;8.472;2024-01-07T05:28:11;10.88;;;6.70;;
4857;SDS011;58975;51.978;8.472;2024-01-07T05:33:08;12.63;;;6.78;;
4857;SDS011;58975;51.978;8.472;2024-01-07T05:38:05;13.38;;;7.30;;
4857;SDS011;58975;51.978;8.472;2024-01-07T05:43:01;11.90;;;6.13;;
4857;SDS011;58975;51.978;8.472;2024-01-07T05:47:58;14.18;;;6.15;;
4857;SDS011;58975;51.978;8.472;2024-01-07T05:52:55;10.13;;;5.57;;
4857;SDS011;58975;51.978;8.472;2024-01-07T05:57:51;11.80;;;5.65;;
4857;SDS011;58975;51.978;8.472;2024-01-07T06:02:48;10.85;;;5.78;;
4857;SDS011;58975;51.978;8.472;2024-01-07T06:07:44;9.88;;;4.93;;
4857;SDS011;58975;51.978;8.472;2024-01-07T06:12:41;11.45;;;5.45;;
4857;SDS011;58975;51.978;8.472;2024-01-07T06:17:37;9.32;;;5.57;;
4857;SDS011;58975;51.978;8.472;2024-01-07T06:22:34;11.15;;;5.03;;
4857;SDS011;58975;51.978;8.472;2024-01-07T06:27:30;8.90;;;5.25;;
4857;SDS011;58975;51.978;8.472;2024-01-07T06:32:26;11.93;;;4.30;;
4857;SDS011;58975;51.978;8.472;2024-01-07T06:37:23;8.43;;;4.30;;
4857;SDS011;58975;51.978;8.472;2024-01-07T06:42:20;7.28;;;4.38;;
4857;SDS011;58975;51.978;8.472;2024-01-07T06:47:16;7.25;;;4.80;;
4857;SDS011;58975;51.978;8.472;2024-01-07T06:52:13;6.75;;;4.47;;
4857;SDS011;58975;51.978;8.472;2024-01-07T06:57:09;6.45;;;4.18;;
4857;SDS011;58975;51.978;8.472;2024-01-07T07:02:06;7.55;;;4.03;;
4857;SDS011;58975;51.978;8.472;2024-01-07T07:07:02;8.30;;;4.32;;
4857;SDS011;58975;51.978;8.472;2024-01-07T07:11:59;8.32;;;4.95;;
4857;SDS011;58975;51.978;8.472;2024-01-07T07:16:57;8.38;;;4.93;;
4857;SDS011;58975;51.978;8.472;2024-01-07T07:21:54;5.82;;;3.40;;
4857;SDS011;58975;51.978;8.472;2024-01-07T07:26:51;5.55;;;3.92;;
4857;SDS011;58975;51.978;8.472;2024-01-07T07:31:47;5.88;;;3.35;;
4857;SDS011;58975;51.978;8.472;2024-01-07T07:36:45;6.30;;;3.47;;
4857;SDS011;58975;51.978;8.472;2024-01-07T07:41:41;4.07;;;2.72;;
4857;SDS011;58975;51.978;8.472;2024-01-07T07:46:38;7.00;;;2.40;;
4857;SDS011;58975;51.978;8.472;2024-01-07T07:51:34;3.00;;;2.40;;
4857;SDS011;58975;51.978;8.472;2024-01-07T07:56:31;4.03;;;2.40;;
4857;SDS011;58975;51.978;8.472;2024-01-07T08:01:28;3.50;;;2.58;;
4857;SDS011;58975;51.978;8.472;2024-01-07T08:06:24;4.05;;;2.78;;
4857;SDS011;58975;51.978;8.472;2024-01-07T08:11:21;4.97;;;2.65;;
4857;SDS011;58975;51.978;8.472;2024-01-07T08:16:17;4.63;;;2.88;;
4857;SDS011;58975;51.978;8.472;2024-01-07T08:21:14;3.15;;;2.70;;
4857;SDS011;58975;51.978;8.472;2024-01-07T08:26:11;4.55;;;2.63;;
4857;SDS011;58975;51.978;8.472;2024-01-07T08:31:09;5.90;;;2.70;;
4857;SDS011;58975;51.978;8.472;2024-01-07T08:36:06;5.53;;;2.28;;
4857;SDS011;58975;51.978;8.472;2024-01-07T08:41:03;4.88;;;2.75;;
4857;SDS011;58975;51.978;8.472;2024-01-07T08:46:00;3.95;;;2.40;;
4857;SDS011;58975;51.978;8.472;2024-01-07T08:50:59;2.88;;;2.03;;
4857;SDS011;58975;51.978;8.472;2024-01-07T08:55:55;4.40;;;2.33;;
4857;SDS011;58975;51.978;8.472;2024-01-07T09:00:52;3.10;;;1.75;;
4857;SDS011;58975;51.978;8.472;2024-01-07T09:05:48;2.38;;;1.73;;
4857;SDS011;58975;51.978;8.472;2024-01-07T09:10:44;2.95;;;1.70;;
4857;SDS011;58975;51.978;8.472;2024-01-07T09:15:41;2.38;;;1.42;;
4857;SDS011;58975;51.978;8.472;2024-01-07T09:20:38;6.13;;;1.83;;
4857;SDS011;58975;51.978;8.472;2024-01-07T09:25:36;3.25;;;1.70;;
4857;SDS011;58975;51.978;8.472;2024-01-07T09:30:32;1.88;;;1.67;;
4857;SDS011;58975;51.978;8.472;2024-01-07T09:35:29;3.38;;;1.73;;
4857;SDS011;58975;51.978;8.472;2024-01-07T09:40:26;5.60;;;1.83;;
4857;SDS011;58975;51.978;8.472;2024-01-07T09:45:22;1.30;;;1.20;;
4857;SDS011;58975;51.978;8.472;2024-01-07T09:50:19;2.97;;;1.50;;
4857;SDS011;58975;51.978;8.472;2024-01-07T09:55:19;3.63;;;1.80;;
4857;SDS011;58975;51.978;8.472;2024-01-07T10:00:24;2.55;;;1.63;;
4857;SDS011;58975;51.978;8.472;2024-01-07T10:05:23;3.72;;;1.50;;
4857;SDS011;58975;51.978;8.472;2024-01-07T10:10:19;3.70;;;2.03;;
4857;SDS011;58975;51.978;8.472;2024-01-07T10:15:16;3.45;;;1.98;;
4857;SDS011;58975;51.978;8.472;2024-01-07T10:20:13;2.63;;;2.20;;
4857;SDS011;58975;51.978;8.472;2024-01-07T10:25:09;2.85;;;1.60;;
4857;SDS011;58975;51.978;8.472;2024-01-07T10:30:06;5.03;;;1.88;;
4857;SDS011;58975;51.978;8.472;2024-01-07T10:35:03;3.85;;;1.60;;
4857;SDS011;58975;51.978;8.472;2024-01-07T10:40:01;2.97;;;1.67;;
4857;SDS011;58975;51.978;8.472;2024-01-07T10:45:00;4.05;;;1.80;;
4857;SDS011;58975;51.978;8.472;2024-01-07T10:49:58;3.58;;;1.50;;
4857;SDS011;58975;51.978;8.472;2024-01-07T10:54:56;3.38;;;1.67;;
4857;SDS011;58975;51.978;8.472;2024-01-07T10:59:54;2.55;;;1.50;;
4857;SDS011;58975;51.978;8.472;2024-01-07T11:10:19;4.00;;;1.48;;
4857;SDS011;58975;51.978;8.472;2024-01-07T11:20:46;1.52;;;1.42;;
4857;SDS011;58975;51.978;8.472;2024-01-07T11:25:43;1.63;;;1.50;;
4857;SDS011;58975;51.978;8.472;2024-01-07T11:30:40;1.73;;;1.33;;
4857;SDS011;58975;51.978;8.472;2024-01-07T11:35:53;1.87;;;1.40;;
4857;SDS011;58975;51.978;8.472;2024-01-07T11:40:53;3.47;;;1.80;;
4857;SDS011;58975;51.978;8.472;2024-01-07T11:45:51;6.57;;;2.38;;
4857;SDS011;58975;51.978;8.472;2024-01-07T11:50:49;4.53;;;2.20;;
4857;SDS011;58975;51.978;8.472;2024-01-07T11:55:49;6.78;;;2.75;;
4857;SDS011;58975;51.978;8.472;2024-01-07T12:00:45;2.25;;;1.75;;
4857;SDS011;58975;51.978;8.472;2024-01-07T12:05:42;6.25;;;2.33;;
4857;SDS011;58975;51.978;8.472;2024-01-07T12:10:40;5.65;;;2.03;;
4857;SDS011;58975;51.978;8.472;2024-01-07T12:15:37;4.65;;;2.22;;
4857;SDS011;58975;51.978;8.472;2024-01-07T12:20:34;5.35;;;2.20;;
4857;SDS011;58975;51.978;8.472;2024-01-07T12:25:30;3.22;;;1.65;;
4857;SDS011;58975;51.978;8.472;2024-01-07T12:30:27;4.13;;;2.17;;
4857;SDS011;58975;51.978;8.472;2024-01-07T12:35:27;3.58;;;2.00;;
4857;SDS011;58975;51.978;8.472;2024-01-07T12:40:24;3.45;;;1.67;;
4857;SDS011;58975;51.978;8.472;2024-01-07T12:45:21;3.55;;;2.10;;
4857;SDS011;58975;51.978;8.472;2024-01-07T12:50:18;2.47;;;1.80;;
4857;SDS011;58975;51.978;8.472;2024-01-07T12:55:14;4.07;;;2.38;;
4857;SDS011;58975;51.978;8.472;2024-01-07T13:00:11;4.20;;;2.15;;
4857;SDS011;58975;51.978;8.472;2024-01-07T13:05:07;4.00;;;1.60;;
4857;SDS011;58975;51.978;8.472;2024-01-07T13:10:05;2.45;;;1.83;;
4857;SDS011;58975;51.978;8.472;2024-01-07T13:15:03;4.05;;;2.17;;
4857;SDS011;58975;51.978;8.472;2024-01-07T13:20:00;3.40;;;1.70;;
4857;SDS011;58975;51.978;8.472;2024-01-07T13:24:57;3.13;;;2.00;;
4857;SDS011;58975;51.978;8.472;2024-01-07T13:29:53;3.47;;;2.10;;
4857;SDS011;58975;51.978;8.472;2024-01-07T13:34:50;3.40;;;2.22;;
4857;SDS011;58975;51.978;8.472;2024-01-07T13:39:46;3.10;;;2.28;;
4857;SDS011;58975;51.978;8.472;2024-01-07T13:44:43;3.15;;;2.05;;
4857;SDS011;58975;51.978;8.472;2024-01-07T13:49:43;3.63;;;2.30;;
4857;SDS011;58975;51.978;8.472;2024-01-07T13:54:41;7.35;;;1.90;;
4857;SDS011;58975;51.978;8.472;2024-01-07T13:59:37;2.30;;;1.90;;
4857;SDS011;58975;51.978;8.472;2024-01-07T14:04:34;4.63;;;1.88;;
4857;SDS011;58975;51.978;8.472;2024-01-07T14:09:30;4.78;;;1.83;;
4857;SDS011;58975;51.978;8.472;2024-01-07T14:14:28;2.63;;;1.98;;
4857;SDS011;58975;51.978;8.472;2024-01-07T14:19:24;2.80;;;1.80;;
4857;SDS011;58975;51.978;8.472;2024-01-07T14:24:21;3.33;;;1.60;;
4857;SDS011;58975;51.978;8.472;2024-01-07T14:29:17;10.23;;;2.47;;
4857;SDS011;58975;51.978;8.472;2024-01-07T14:34:13;2.50;;;1.65;;
4857;SDS011;58975;51.978;8.472;2024-01-07T14:39:11;4.65;;;2.10;;
4857;SDS011;58975;51.978;8.472;2024-01-07T14:44:09;3.90;;;1.60;;
4857;SDS011;58975;51.978;8.472;2024-01-07T14:49:08;3.65;;;2.03;;
4857;SDS011;58975;51.978;8.472;2024-01-07T14:54:05;6.68;;;2.35;;
4857;SDS011;58975;51.978;8.472;2024-01-07T14:59:01;4.25;;;2.35;;
4857;SDS011;58975;51.978;8.472;2024-01-07T15:03:58;2.90;;;1.98;;
4857;SDS011;58975;51.978;8.472;2024-01-07T15:08:54;5.20;;;2.05;;
4857;SDS011;58975;51.978;8.472;2024-01-07T15:13:50;3.95;;;2.05;;
4857;SDS011;58975;51.978;8.472;2024-01-07T15:18:47;3.70;;;1.67;;
4857;SDS011;58975;51.978;8.472;2024-01-07T15:23:44;2.58;;;1.60;;
4857;SDS011;58975;51.978;8.472;2024-01-07T15:28:40;4.50;;;1.75;;
4857;SDS011;58975;51.978;8.472;2024-01-07T15:33:37;4.93;;;1.55;;
4857;SDS011;58975;51.978;8.472;2024-01-07T15:38:33;3.03;;;1.48;;
4857;SDS011;58975;51.978;8.472;2024-01-07T15:43:29;2.75;;;1.85;;
4857;SDS011;58975;51.978;8.472;2024-01-07T15:48:26;4.40;;;1.70;;
4857;SDS011;58975;51.978;8.472;2024-01-07T15:53:22;3.33;;;1.80;;
4857;SDS011;58975;51.978;8.472;2024-01-07T15:58:22;2.78;;;1.85;;
4857;SDS011;58975;51.978;8.472;2024-01-07T16:03:22;2.50;;;1.67;;
4857;SDS011;58975;51.978;8.472;2024-01-07T16:08:19;3.53;;;2.17;;
4857;SDS011;58975;51.978;8.472;2024-01-07T16:13:16;3.03;;;1.83;;
4857;SDS011;58975;51.978;8.472;2024-01-07T16:18:13;4.43;;;2.00;;
4857;SDS011;58975;51.978;8.472;2024-01-07T16:23:10;7.13;;;1.85;;
4857;SDS011;58975;51.978;8.472;2024-01-07T16:28:07;2.35;;;1.92;;
4857;SDS011;58975;51.978;8.472;2024-01-07T16:33:03;4.65;;;1.88;;
4857;SDS011;58975;51.978;8.472;2024-01-07T16:38:05;5.55;;;3.08;;
4857;SDS011;58975;51.978;8.472;2024-01-07T16:43:02;3.55;;;2.83;;
4857;SDS011;58975;51.978;8.472;2024-01-07T16:47:59;4.93;;;2.33;;
4857;SDS011;58975;51.978;8.472;2024-01-07T16:52:59;3.92;;;2.28;;
4857;SDS011;58975;51.978;8.472;2024-01-07T16:57:55;5.38;;;1.92;;
4857;SDS011;58975;51.978;8.472;2024-01-07T17:02:51;3.65;;;2.67;;
4857;SDS011;58975;51.978;8.472;2024-01-07T17:07:48;6.07;;;2.50;;
4857;SDS011;58975;51.978;8.472;2024-01-07T17:12:44;4.85;;;2.72;;
4857;SDS011;58975;51.978;8.472;2024-01-07T17:17:41;4.10;;;2.33;;
4857;SDS011;58975;51.978;8.472;2024-01-07T17:22:38;5.07;;;2.58;;
4857;SDS011;58975;51.978;8.472;2024-01-07T17:27:35;3.50;;;2.35;;
4857;SDS011;58975;51.978;8.472;2024-01-07T17:32:32;5.18;;;2.80;;
4857;SDS011;58975;51.978;8.472;2024-01-07T17:37:28;4.10;;;2.67;;
4857;SDS011;58975;51.978;8.472;2024-01-07T17:42:25;4.68;;;2.70;;
4857;SDS011;58975;51.978;8.472;2024-01-07T17:47:21;5.90;;;2.85;;
4857;SDS011;58975;51.978;8.472;2024-01-07T17:52:18;6.57;;;3.38;;
4857;SDS011;58975;51.978;8.472;2024-01-07T17:57:15;7.40;;;3.05;;
4857;SDS011;58975;51.978;8.472;2024-01-07T18:02:12;6.72;;;2.67;;
4857;SDS011;58975;51.978;8.472;2024-01-07T18:07:09;6.80;;;3.38;;
4857;SDS011;58975;51.978;8.472;2024-01-07T18:12:06;6.85;;;2.97;;
4857;SDS011;58975;51.978;8.472;2024-01-07T18:17:02;5.70;;;3.25;;
4857;SDS011;58975;51.978;8.472;2024-01-07T18:21:59;8.35;;;4.30;;
4857;SDS011;58975;51.978;8.472;2024-01-07T18:26:56;7.85;;;3.88;;
4857;SDS011;58975;51.978;8.472;2024-01-07T18:31:53;6.95;;;3.88;;
4857;SDS011;58975;51.978;8.472;2024-01-07T18:36:50;10.25;;;3.67;;
4857;SDS011;58975;51.978;8.472;2024-01-07T18:41:48;5.90;;;3.65;;
4857;SDS011;58975;51.978;8.472;2024-01-07T18:46:45;5.97;;;3.72;;
4857;SDS011;58975;51.978;8.472;2024-01-07T18:51:41;5.47;;;3.25;;
4857;SDS011;58975;51.978;8.472;2024-01-07T18:56:39;6.00;;;3.75;;
4857;SDS011;58975;51.978;8.472;2024-01-07T19:01:36;7.03;;;3.83;;
4857;SDS011;58975;51.978;8.472;2024-01-07T19:06:33;9.25;;;4.90;;
4857;SDS011;58975;51.978;8.472;2024-01-07T19:11:30;6.82;;;4.10;;
4857;SDS011;58975;51.978;8.472;2024-01-07T19:16:27;8.70;;;4.25;;
4857;SDS011;58975;51.978;8.472;2024-01-07T19:21:23;7.45;;;4.25;;
4857;SDS011;58975;51.978;8.472;2024-01-07T19:26:25;7.50;;;4.72;;
4857;SDS011;58975;51.978;8.472;2024-01-07T19:31:28;5.40;;;3.53;;
4857;SDS011;58975;51.978;8.472;2024-01-07T19:36:25;7.75;;;4.30;;
4857;SDS011;58975;51.978;8.472;2024-01-07T19:41:22;9.50;;;3.90;;
4857;SDS011;58975;51.978;8.472;2024-01-07T19:46:26;6.40;;;3.75;;
4857;SDS011;58975;51.978;8.472;2024-01-07T19:51:23;8.13;;;4.55;;
4857;SDS011;58975;51.978;8.472;2024-01-07T19:56:20;6.38;;;3.78;;
4857;SDS011;58975;51.978;8.472;2024-01-07T20:01:16;8.00;;;4.38;;
4857;SDS011;58975;51.978;8.472;2024-01-07T20:06:13;10.35;;;4.28;;
4857;SDS011;58975;51.978;8.472;2024-01-07T20:11:17;8.93;;;4.85;;
4857;SDS011;58975;51.978;8.472;2024-01-07T20:16:15;5.70;;;3.55;;
4857;SDS011;58975;51.978;8.472;2024-01-07T20:21:21;6.03;;;4.07;;
4857;SDS011;58975;51.978;8.472;2024-01-07T20:26:20;7.20;;;4.13;;
4857;SDS011;58975;51.978;8.472;2024-01-07T20:31:18;12.40;;;4.03;;
4857;SDS011;58975;51.978;8.472;2024-01-07T20:36:14;9.63;;;5.13;;
4857;SDS011;58975;51.978;8.472;2024-01-07T20:41:11;8.82;;;4.57;;
4857;SDS011;58975;51.978;8.472;2024-01-07T20:46:08;7.57;;;4.18;;
4857;SDS011;58975;51.978;8.472;2024-01-07T20:51:06;7.18;;;4.00;;
4857;SDS011;58975;51.978;8.472;2024-01-07T20:56:03;7.40;;;3.83;;
4857;SDS011;58975;51.978;8.472;2024-01-07T21:01:00;7.43;;;3.65;;
4857;SDS011;58975;51.978;8.472;2024-01-07T21:05:57;6.93;;;3.67;;
4857;SDS011;58975;51.978;8.472;2024-01-07T21:10:55;6.20;;;3.83;;
4857;SDS011;58975;51.978;8.472;2024-01-07T21:15:54;7.22;;;2.97;;
4857;SDS011;58975;51.978;8.472;2024-01-07T21:20:50;8.73;;;2.83;;
4857;SDS011;58975;51.978;8.472;2024-01-07T21:25:46;8.05;;;3.15;;
4857;SDS011;58975;51.978;8.472;2024-01-07T21:30:44;5.87;;;2.87;;
4857;SDS011;58975;51.978;8.472;2024-01-07T21:35:42;5.47;;;2.95;;
4857;SDS011;58975;51.978;8.472;2024-01-07T21:40:38;2.95;;;2.28;;
4857;SDS011;58975;51.978;8.472;2024-01-07T21:45:35;4.40;;;2.47;;
4857;SDS011;58975;51.978;8.472;2024-01-07T21:50:31;4.15;;;2.17;;
4857;SDS011;58975;51.978;8.472;2024-01-07T21:55:28;8.13;;;3.22;;
4857;SDS011;58975;51.978;8.472;2024-01-07T22:00:24;10.30;;;2.88;;
4857;SDS011;58975;51.978;8.472;2024-01-07T22:05:21;4.90;;;2.55;;
4857;SDS011;58975;51.978;8.472;2024-01-07T22:10:17;7.25;;;2.80;;
4857;SDS011;58975;51.978;8.472;2024-01-07T22:15:14;6.88;;;2.70;;
4857;SDS011;58975;51.978;8.472;2024-01-07T22:20:10;5.68;;;2.40;;
4857;SDS011;58975;51.978;8.472;2024-01-07T22:25:08;3.92;;;2.47;;
4857;SDS011;58975;51.978;8.472;2024-01-07T22:30:05;4.70;;;2.80;;
4857;SDS011;58975;51.978;8.472;2024-01-07T22:35:02;5.47;;;2.65;;
4857;SDS011;58975;51.978;8.472;2024-01-07T22:39:59;3.00;;;2.60;;
4857;SDS011;58975;51.978;8.472;2024-01-07T22:44:55;6.20;;;3.28;;
4857;SDS011;58975;51.978;8.472;2024-01-07T22:49:53;5.10;;;2.70;;
4857;SDS011;58975;51.978;8.472;2024-01-07T22:54:49;4.03;;;3.13;;
4857;SDS011;58975;51.978;8.472;2024-01-07T22:59:46;13.52;;;3.60;;
4857;SDS011;58975;51.978;8.472;2024-01-07T23:04:42;5.53;;;3.40;;
4857;SDS011;58975;51.978;8.472;2024-01-07T23:09:39;9.82;;;3.42;;
4857;SDS011;58975;51.978;8.472;2024-01-07T23:14:35;7.75;;;3.63;;
4857;SDS011;58975;51.978;8.472;2024-01-07T23:19:32;6.43;;;4.03;;
4857;SDS011;58975;51.978;8.472;2024-01-07T23:24:28;5.00;;;3.10;;
4857;SDS011;58975;51.978;8.472;2024-01-07T23:29:25;5.82;;;3.83;;
4857;SDS011;58975;51.978;8.472;2024-01-07T23:34:22;8.73;;;4.18;;
4857;SDS011;58975;51.978;8.472;2024-01-07T23:39:18;7.93;;;3.35;;
4857;SDS011;58975;51.978;8.472;2024-01-07T23:44:15;5.28;;;3.47;;
4857;SDS011;58975;51.978;8.472;2024-01-07T23:49:12;6.70;;;3.83;;
4857;SDS011;58975;51.978;8.472;2024-01-07T23:54:08;7.35;;;4.15;;
4857;SDS011;58975;51.978;8.472;2024-01-07T23:59:08;6.75;;;3.55;;
